sensor_id;sensor_type;location;lat;lon;timestamp;temperature;humidity
40085;DHT22;25786;51.504;7.344;2023-04-29T00:01:04;12.40;87.10
40085;DHT22;25786;51.504;7.344;2023-04-29T00:03:30;12.50;86.90
40085;DHT22;25786;51.504;7.344;2023-04-29T00:05:59;12.40;87.20
40085;DHT22;25786;51.504;7.344;2023-04-29T00:08:24;12.50;86.90
40085;DHT22;25786;51.504;7.344;2023-04-29T00:10:50;12.40;86.80
40085;DHT22;25786;51.504;7.344;2023-04-29T00:13:15;12.30;87.10
40085;DHT22;25786;51.504;7.344;2023-04-29T00:15:42;12.20;87.50
40085;DHT22;25786;51.504;7.344;2023-04-29T00:18:07;12.30;87.80
40085;DHT22;25786;51.504;7.344;2023-04-29T00:20:33;12.20;87.60
40085;DHT22;25786;51.504;7.344;2023-04-29T00:22:59;12.30;87.50
40085;DHT22;25786;51.504;7.344;2023-04-29T00:25:24;12.30;87.40
40085;DHT22;25786;51.504;7.344;2023-04-29T00:27:49;12.30;87.30
40085;DHT22;25786;51.504;7.344;2023-04-29T00:30:15;12.30;86.80
40085;DHT22;25786;51.504;7.344;2023-04-29T00:32:40;12.20;87.00
40085;DHT22;25786;51.504;7.344;2023-04-29T00:35:07;12.30;87.10
40085;DHT22;25786;51.504;7.344;2023-04-29T00:37:33;12.30;86.90
40085;DHT22;25786;51.504;7.344;2023-04-29T00:39:59;12.30;87.10
40085;DHT22;25786;51.504;7.344;2023-04-29T00:42:24;12.20;87.10
40085;DHT22;25786;51.504;7.344;2023-04-29T00:44:50;12.10;87.40
40085;DHT22;25786;51.504;7.344;2023-04-29T00:47:15;12.20;87.10
40085;DHT22;25786;51.504;7.344;2023-04-29T00:49:41;12.20;87.20
40085;DHT22;25786;51.504;7.344;2023-04-29T00:52:07;12.10;87.30
40085;DHT22;25786;51.504;7.344;2023-04-29T00:54:35;12.10;87.80
40085;DHT22;25786;51.504;7.344;2023-04-29T00:57:01;12.10;87.50
40085;DHT22;25786;51.504;7.344;2023-04-29T00:59:28;12.10;87.50
40085;DHT22;25786;51.504;7.344;2023-04-29T01:01:58;12.10;87.70
40085;DHT22;25786;51.504;7.344;2023-04-29T01:04:24;12.10;87.70
40085;DHT22;25786;51.504;7.344;2023-04-29T01:14:33;12.10;87.60
40085;DHT22;25786;51.504;7.344;2023-04-29T01:17:04;12.10;87.60
40085;DHT22;25786;51.504;7.344;2023-04-29T01:22:08;12.10;87.50
40085;DHT22;25786;51.504;7.344;2023-04-29T01:24:33;12.10;86.80
40085;DHT22;25786;51.504;7.344;2023-04-29T01:27:04;12.10;87.50
40085;DHT22;25786;51.504;7.344;2023-04-29T01:29:43;12.00;88.00
40085;DHT22;25786;51.504;7.344;2023-04-29T01:32:13;12.10;87.80
40085;DHT22;25786;51.504;7.344;2023-04-29T01:37:13;12.10;87.10
40085;DHT22;25786;51.504;7.344;2023-04-29T01:42:18;11.90;87.90
40085;DHT22;25786;51.504;7.344;2023-04-29T01:44:46;11.80;87.90
40085;DHT22;25786;51.504;7.344;2023-04-29T01:47:13;11.80;88.00
40085;DHT22;25786;51.504;7.344;2023-04-29T01:49:39;11.70;87.80
40085;DHT22;25786;51.504;7.344;2023-04-29T01:52:05;11.70;88.20
40085;DHT22;25786;51.504;7.344;2023-04-29T01:54:31;11.70;88.00
40085;DHT22;25786;51.504;7.344;2023-04-29T01:57:00;11.60;88.20
40085;DHT22;25786;51.504;7.344;2023-04-29T01:59:26;11.60;88.50
40085;DHT22;25786;51.504;7.344;2023-04-29T02:01:51;11.60;88.80
40085;DHT22;25786;51.504;7.344;2023-04-29T02:04:17;11.60;88.40
40085;DHT22;25786;51.504;7.344;2023-04-29T02:06:43;11.60;88.80
40085;DHT22;25786;51.504;7.344;2023-04-29T02:09:08;11.60;88.70
40085;DHT22;25786;51.504;7.344;2023-04-29T02:11:34;11.50;88.10
40085;DHT22;25786;51.504;7.344;2023-04-29T02:13:59;11.40;88.50
40085;DHT22;25786;51.504;7.344;2023-04-29T02:16:25;11.30;88.80
40085;DHT22;25786;51.504;7.344;2023-04-29T02:18:50;11.30;89.00
40085;DHT22;25786;51.504;7.344;2023-04-29T02:21:15;11.40;88.20
40085;DHT22;25786;51.504;7.344;2023-04-29T02:23:41;11.30;88.40
40085;DHT22;25786;51.504;7.344;2023-04-29T02:26:06;11.30;88.60
40085;DHT22;25786;51.504;7.344;2023-04-29T02:28:33;11.30;89.10
40085;DHT22;25786;51.504;7.344;2023-04-29T02:30:59;11.30;89.30
40085;DHT22;25786;51.504;7.344;2023-04-29T02:33:24;11.30;89.10
40085;DHT22;25786;51.504;7.344;2023-04-29T02:35:50;11.30;89.20
40085;DHT22;25786;51.504;7.344;2023-04-29T02:38:15;11.50;88.80
40085;DHT22;25786;51.504;7.344;2023-04-29T02:40:41;11.50;89.00
40085;DHT22;25786;51.504;7.344;2023-04-29T02:43:07;11.50;89.10
40085;DHT22;25786;51.504;7.344;2023-04-29T02:45:34;11.50;88.50
40085;DHT22;25786;51.504;7.344;2023-04-29T02:47:59;11.40;88.20
40085;DHT22;25786;51.504;7.344;2023-04-29T02:50:24;11.50;87.40
40085;DHT22;25786;51.504;7.344;2023-04-29T02:52:50;11.40;86.80
40085;DHT22;25786;51.504;7.344;2023-04-29T02:55:16;11.30;87.20
40085;DHT22;25786;51.504;7.344;2023-04-29T02:57:43;11.30;87.50
40085;DHT22;25786;51.504;7.344;2023-04-29T03:00:08;11.40;86.80
40085;DHT22;25786;51.504;7.344;2023-04-29T03:02:34;11.30;87.10
40085;DHT22;25786;51.504;7.344;2023-04-29T03:05:00;11.30;87.50
40085;DHT22;25786;51.504;7.344;2023-04-29T03:07:25;11.20;87.00
40085;DHT22;25786;51.504;7.344;2023-04-29T03:09:52;11.20;87.50
40085;DHT22;25786;51.504;7.344;2023-04-29T03:12:17;11.20;87.70
40085;DHT22;25786;51.504;7.344;2023-04-29T03:14:43;11.10;87.80
40085;DHT22;25786;51.504;7.344;2023-04-29T03:17:08;11.10;87.80
40085;DHT22;25786;51.504;7.344;2023-04-29T03:19:34;11.20;88.20
40085;DHT22;25786;51.504;7.344;2023-04-29T03:21:59;11.20;87.70
40085;DHT22;25786;51.504;7.344;2023-04-29T03:24:24;11.20;87.90
40085;DHT22;25786;51.504;7.344;2023-04-29T03:26:50;11.20;88.00
40085;DHT22;25786;51.504;7.344;2023-04-29T03:29:15;11.30;88.00
40085;DHT22;25786;51.504;7.344;2023-04-29T03:31:41;11.40;87.80
40085;DHT22;25786;51.504;7.344;2023-04-29T03:34:06;11.50;86.70
40085;DHT22;25786;51.504;7.344;2023-04-29T03:36:32;11.40;87.50
40085;DHT22;25786;51.504;7.344;2023-04-29T03:38:57;11.40;87.50
40085;DHT22;25786;51.504;7.344;2023-04-29T03:41:23;11.30;87.40
40085;DHT22;25786;51.504;7.344;2023-04-29T03:43:48;11.30;87.50
40085;DHT22;25786;51.504;7.344;2023-04-29T03:46:14;11.50;87.10
40085;DHT22;25786;51.504;7.344;2023-04-29T03:48:39;11.30;86.50
40085;DHT22;25786;51.504;7.344;2023-04-29T03:51:05;11.20;86.90
40085;DHT22;25786;51.504;7.344;2023-04-29T03:53:30;11.20;87.30
40085;DHT22;25786;51.504;7.344;2023-04-29T03:55:57;11.20;87.00
40085;DHT22;25786;51.504;7.344;2023-04-29T03:58:22;11.20;86.90
40085;DHT22;25786;51.504;7.344;2023-04-29T04:00:48;11.10;87.40
40085;DHT22;25786;51.504;7.344;2023-04-29T04:03:13;11.10;87.90
40085;DHT22;25786;51.504;7.344;2023-04-29T04:05:39;11.10;87.30
40085;DHT22;25786;51.504;7.344;2023-04-29T04:08:04;11.10;87.70
40085;DHT22;25786;51.504;7.344;2023-04-29T04:10:30;11.10;87.40
40085;DHT22;25786;51.504;7.344;2023-04-29T04:12:55;11.00;87.80
40085;DHT22;25786;51.504;7.344;2023-04-29T04:15:21;11.00;88.00
40085;DHT22;25786;51.504;7.344;2023-04-29T04:17:46;11.10;87.30
40085;DHT22;25786;51.504;7.344;2023-04-29T04:20:12;11.10;87.40
40085;DHT22;25786;51.504;7.344;2023-04-29T04:22:38;11.10;87.30
40085;DHT22;25786;51.504;7.344;2023-04-29T04:25:03;11.00;87.70
40085;DHT22;25786;51.504;7.344;2023-04-29T04:27:29;11.10;88.10
40085;DHT22;25786;51.504;7.344;2023-04-29T04:29:54;11.20;87.10
40085;DHT22;25786;51.504;7.344;2023-04-29T04:32:23;11.10;87.10
40085;DHT22;25786;51.504;7.344;2023-04-29T04:34:48;11.10;87.60
40085;DHT22;25786;51.504;7.344;2023-04-29T04:37:14;11.10;87.50
40085;DHT22;25786;51.504;7.344;2023-04-29T04:39:40;11.30;86.90
40085;DHT22;25786;51.504;7.344;2023-04-29T04:42:05;11.20;86.70
40085;DHT22;25786;51.504;7.344;2023-04-29T04:44:31;11.20;87.30
40085;DHT22;25786;51.504;7.344;2023-04-29T04:46:57;11.10;87.00
40085;DHT22;25786;51.504;7.344;2023-04-29T04:49:25;11.10;87.00
40085;DHT22;25786;51.504;7.344;2023-04-29T04:51:51;11.10;87.40
40085;DHT22;25786;51.504;7.344;2023-04-29T04:54:16;11.30;87.40
40085;DHT22;25786;51.504;7.344;2023-04-29T04:56:42;11.30;86.60
40085;DHT22;25786;51.504;7.344;2023-04-29T04:59:07;11.10;87.10
40085;DHT22;25786;51.504;7.344;2023-04-29T05:01:32;11.30;86.70
40085;DHT22;25786;51.504;7.344;2023-04-29T05:03:58;11.30;86.30
40085;DHT22;25786;51.504;7.344;2023-04-29T05:06:25;11.30;86.70
40085;DHT22;25786;51.504;7.344;2023-04-29T05:08:50;11.30;86.10
40085;DHT22;25786;51.504;7.344;2023-04-29T05:11:19;11.30;86.40
40085;DHT22;25786;51.504;7.344;2023-04-29T05:13:45;11.30;86.40
40085;DHT22;25786;51.504;7.344;2023-04-29T05:16:11;11.30;86.90
40085;DHT22;25786;51.504;7.344;2023-04-29T05:18:36;11.30;87.00
40085;DHT22;25786;51.504;7.344;2023-04-29T05:21:02;11.30;86.80
40085;DHT22;25786;51.504;7.344;2023-04-29T05:23:27;11.20;86.30
40085;DHT22;25786;51.504;7.344;2023-04-29T05:25:53;11.20;85.90
40085;DHT22;25786;51.504;7.344;2023-04-29T05:28:18;11.20;86.30
40085;DHT22;25786;51.504;7.344;2023-04-29T05:30:44;11.30;86.20
40085;DHT22;25786;51.504;7.344;2023-04-29T05:33:10;11.20;86.20
40085;DHT22;25786;51.504;7.344;2023-04-29T05:35:36;11.20;86.50
40085;DHT22;25786;51.504;7.344;2023-04-29T05:38:01;11.10;86.70
40085;DHT22;25786;51.504;7.344;2023-04-29T05:40:27;11.20;86.60
40085;DHT22;25786;51.504;7.344;2023-04-29T05:42:52;11.20;86.30
40085;DHT22;25786;51.504;7.344;2023-04-29T05:45:18;11.20;86.30
40085;DHT22;25786;51.504;7.344;2023-04-29T05:47:43;11.30;85.80
40085;DHT22;25786;51.504;7.344;2023-04-29T05:50:09;11.10;86.20
40085;DHT22;25786;51.504;7.344;2023-04-29T05:52:35;11.00;86.70
40085;DHT22;25786;51.504;7.344;2023-04-29T05:55:01;11.10;86.50
40085;DHT22;25786;51.504;7.344;2023-04-29T05:57:26;11.10;86.80
40085;DHT22;25786;51.504;7.344;2023-04-29T05:59:52;11.10;87.30
40085;DHT22;25786;51.504;7.344;2023-04-29T06:02:19;11.10;86.70
40085;DHT22;25786;51.504;7.344;2023-04-29T06:04:45;11.10;87.00
40085;DHT22;25786;51.504;7.344;2023-04-29T06:07:12;11.10;86.90
40085;DHT22;25786;51.504;7.344;2023-04-29T06:09:37;11.10;86.80
40085;DHT22;25786;51.504;7.344;2023-04-29T06:12:03;11.00;87.50
40085;DHT22;25786;51.504;7.344;2023-04-29T06:14:29;11.00;87.90
40085;DHT22;25786;51.504;7.344;2023-04-29T06:16:54;11.00;87.30
40085;DHT22;25786;51.504;7.344;2023-04-29T06:19:20;11.00;87.40
40085;DHT22;25786;51.504;7.344;2023-04-29T06:21:45;11.00;87.40
40085;DHT22;25786;51.504;7.344;2023-04-29T06:24:11;11.10;86.90
40085;DHT22;25786;51.504;7.344;2023-04-29T06:26:36;11.00;87.10
40085;DHT22;25786;51.504;7.344;2023-04-29T06:29:02;11.00;86.80
40085;DHT22;25786;51.504;7.344;2023-04-29T06:31:27;11.20;86.40
40085;DHT22;25786;51.504;7.344;2023-04-29T06:33:53;11.10;86.10
40085;DHT22;25786;51.504;7.344;2023-04-29T06:36:19;11.20;86.90
40085;DHT22;25786;51.504;7.344;2023-04-29T06:38:44;11.20;86.60
40085;DHT22;25786;51.504;7.344;2023-04-29T06:41:10;11.30;86.10
40085;DHT22;25786;51.504;7.344;2023-04-29T06:43:35;11.30;85.50
40085;DHT22;25786;51.504;7.344;2023-04-29T06:46:01;11.40;85.90
40085;DHT22;25786;51.504;7.344;2023-04-29T06:48:26;11.40;85.80
40085;DHT22;25786;51.504;7.344;2023-04-29T06:50:53;11.40;85.50
40085;DHT22;25786;51.504;7.344;2023-04-29T06:53:19;11.30;86.10
40085;DHT22;25786;51.504;7.344;2023-04-29T06:55:45;11.30;85.90
40085;DHT22;25786;51.504;7.344;2023-04-29T06:58:11;11.30;86.20
40085;DHT22;25786;51.504;7.344;2023-04-29T07:00:37;11.30;86.20
40085;DHT22;25786;51.504;7.344;2023-04-29T07:03:03;11.30;85.40
40085;DHT22;25786;51.504;7.344;2023-04-29T07:05:28;11.20;85.60
40085;DHT22;25786;51.504;7.344;2023-04-29T07:07:54;11.10;85.70
40085;DHT22;25786;51.504;7.344;2023-04-29T07:10:19;11.10;85.30
40085;DHT22;25786;51.504;7.344;2023-04-29T07:12:45;11.00;85.50
40085;DHT22;25786;51.504;7.344;2023-04-29T07:15:10;10.90;86.50
40085;DHT22;25786;51.504;7.344;2023-04-29T07:17:36;10.90;86.50
40085;DHT22;25786;51.504;7.344;2023-04-29T07:20:02;10.80;87.30
40085;DHT22;25786;51.504;7.344;2023-04-29T07:22:28;10.80;87.00
40085;DHT22;25786;51.504;7.344;2023-04-29T07:24:54;10.80;87.20
40085;DHT22;25786;51.504;7.344;2023-04-29T07:27:20;10.80;87.50
40085;DHT22;25786;51.504;7.344;2023-04-29T07:29:45;10.80;87.40
40085;DHT22;25786;51.504;7.344;2023-04-29T07:32:11;10.80;87.60
40085;DHT22;25786;51.504;7.344;2023-04-29T07:34:36;10.80;87.40
40085;DHT22;25786;51.504;7.344;2023-04-29T07:37:02;10.80;87.10
40085;DHT22;25786;51.504;7.344;2023-04-29T07:39:28;10.80;87.30
40085;DHT22;25786;51.504;7.344;2023-04-29T07:41:54;10.90;87.00
40085;DHT22;25786;51.504;7.344;2023-04-29T07:44:19;10.90;86.80
40085;DHT22;25786;51.504;7.344;2023-04-29T07:46:46;10.80;87.80
40085;DHT22;25786;51.504;7.344;2023-04-29T07:49:11;10.80;87.30
40085;DHT22;25786;51.504;7.344;2023-04-29T07:51:40;10.90;87.20
40085;DHT22;25786;51.504;7.344;2023-04-29T07:54:06;10.80;87.00
40085;DHT22;25786;51.504;7.344;2023-04-29T07:56:32;10.80;87.20
40085;DHT22;25786;51.504;7.344;2023-04-29T07:58:58;10.70;87.50
40085;DHT22;25786;51.504;7.344;2023-04-29T08:01:24;10.70;87.60
40085;DHT22;25786;51.504;7.344;2023-04-29T08:03:49;10.80;87.00
40085;DHT22;25786;51.504;7.344;2023-04-29T08:06:15;10.70;87.50
40085;DHT22;25786;51.504;7.344;2023-04-29T08:08:40;10.70;87.00
40085;DHT22;25786;51.504;7.344;2023-04-29T08:11:06;10.60;87.90
40085;DHT22;25786;51.504;7.344;2023-04-29T08:13:31;10.60;88.10
40085;DHT22;25786;51.504;7.344;2023-04-29T08:15:57;10.70;88.00
40085;DHT22;25786;51.504;7.344;2023-04-29T08:18:22;10.70;87.60
40085;DHT22;25786;51.504;7.344;2023-04-29T08:20:48;10.70;87.90
40085;DHT22;25786;51.504;7.344;2023-04-29T08:23:14;10.80;87.90
40085;DHT22;25786;51.504;7.344;2023-04-29T08:25:40;10.90;87.90
40085;DHT22;25786;51.504;7.344;2023-04-29T08:28:06;11.00;87.00
40085;DHT22;25786;51.504;7.344;2023-04-29T08:30:31;11.10;86.70
40085;DHT22;25786;51.504;7.344;2023-04-29T08:32:57;10.90;86.90
40085;DHT22;25786;51.504;7.344;2023-04-29T08:35:23;10.80;86.90
40085;DHT22;25786;51.504;7.344;2023-04-29T08:37:48;10.80;87.20
40085;DHT22;25786;51.504;7.344;2023-04-29T08:40:14;10.90;86.70
40085;DHT22;25786;51.504;7.344;2023-04-29T08:42:39;10.80;87.00
40085;DHT22;25786;51.504;7.344;2023-04-29T08:45:06;10.90;86.90
40085;DHT22;25786;51.504;7.344;2023-04-29T08:47:32;10.90;87.30
40085;DHT22;25786;51.504;7.344;2023-04-29T08:50:04;10.90;86.90
40085;DHT22;25786;51.504;7.344;2023-04-29T08:52:33;10.90;87.20
40085;DHT22;25786;51.504;7.344;2023-04-29T08:54:58;11.00;87.40
40085;DHT22;25786;51.504;7.344;2023-04-29T08:57:27;10.90;87.00
40085;DHT22;25786;51.504;7.344;2023-04-29T08:59:53;11.00;86.90
40085;DHT22;25786;51.504;7.344;2023-04-29T09:02:18;11.00;86.90
40085;DHT22;25786;51.504;7.344;2023-04-29T09:04:53;11.00;86.60
40085;DHT22;25786;51.504;7.344;2023-04-29T09:07:20;10.90;87.30
40085;DHT22;25786;51.504;7.344;2023-04-29T09:09:45;11.00;87.20
40085;DHT22;25786;51.504;7.344;2023-04-29T09:12:11;11.10;86.60
40085;DHT22;25786;51.504;7.344;2023-04-29T09:14:39;11.10;86.40
40085;DHT22;25786;51.504;7.344;2023-04-29T09:17:04;11.10;86.30
40085;DHT22;25786;51.504;7.344;2023-04-29T09:19:31;11.30;85.90
40085;DHT22;25786;51.504;7.344;2023-04-29T09:21:57;11.30;85.30
40085;DHT22;25786;51.504;7.344;2023-04-29T09:24:26;11.30;85.30
40085;DHT22;25786;51.504;7.344;2023-04-29T09:26:52;11.30;85.60
40085;DHT22;25786;51.504;7.344;2023-04-29T09:29:18;11.30;85.40
40085;DHT22;25786;51.504;7.344;2023-04-29T09:31:44;11.60;84.60
40085;DHT22;25786;51.504;7.344;2023-04-29T09:34:10;11.40;85.40
40085;DHT22;25786;51.504;7.344;2023-04-29T09:39:15;11.60;84.80
40085;DHT22;25786;51.504;7.344;2023-04-29T09:44:16;12.10;84.20
40085;DHT22;25786;51.504;7.344;2023-04-29T09:46:42;12.30;84.00
40085;DHT22;25786;51.504;7.344;2023-04-29T09:49:24;12.50;82.90
40085;DHT22;25786;51.504;7.344;2023-04-29T09:54:19;12.60;81.30
40085;DHT22;25786;51.504;7.344;2023-04-29T09:56:48;12.50;81.30
40085;DHT22;25786;51.504;7.344;2023-04-29T09:59:13;12.60;81.90
40085;DHT22;25786;51.504;7.344;2023-04-29T10:01:39;12.60;81.20
40085;DHT22;25786;51.504;7.344;2023-04-29T10:04:05;12.60;80.50
40085;DHT22;25786;51.504;7.344;2023-04-29T10:06:32;12.60;81.50
40085;DHT22;25786;51.504;7.344;2023-04-29T10:08:58;12.50;81.70
40085;DHT22;25786;51.504;7.344;2023-04-29T10:11:24;12.60;81.70
40085;DHT22;25786;51.504;7.344;2023-04-29T10:13:51;12.60;82.40
40085;DHT22;25786;51.504;7.344;2023-04-29T10:16:22;12.80;81.90
40085;DHT22;25786;51.504;7.344;2023-04-29T10:18:52;13.10;80.60
40085;DHT22;25786;51.504;7.344;2023-04-29T10:21:20;13.10;80.60
40085;DHT22;25786;51.504;7.344;2023-04-29T10:23:46;13.30;78.60
40085;DHT22;25786;51.504;7.344;2023-04-29T10:26:12;13.20;79.30
40085;DHT22;25786;51.504;7.344;2023-04-29T10:28:39;13.10;79.50
40085;DHT22;25786;51.504;7.344;2023-04-29T10:31:06;13.00;79.10
40085;DHT22;25786;51.504;7.344;2023-04-29T10:33:32;13.10;80.60
40085;DHT22;25786;51.504;7.344;2023-04-29T10:36:00;13.20;79.80
40085;DHT22;25786;51.504;7.344;2023-04-29T10:38:33;13.40;78.70
40085;DHT22;25786;51.504;7.344;2023-04-29T10:40:59;13.40;79.50
40085;DHT22;25786;51.504;7.344;2023-04-29T10:43:28;13.70;76.90
40085;DHT22;25786;51.504;7.344;2023-04-29T10:46:38;13.90;76.60
40085;DHT22;25786;51.504;7.344;2023-04-29T10:48:39;13.80;77.10
40085;DHT22;25786;51.504;7.344;2023-04-29T10:51:04;13.80;76.80
40085;DHT22;25786;51.504;7.344;2023-04-29T10:53:30;13.90;75.60
40085;DHT22;25786;51.504;7.344;2023-04-29T10:56:02;13.60;75.30
40085;DHT22;25786;51.504;7.344;2023-04-29T10:58:41;13.90;76.40
40085;DHT22;25786;51.504;7.344;2023-04-29T11:01:12;14.00;75.10
40085;DHT22;25786;51.504;7.344;2023-04-29T11:03:53;14.00;74.60
40085;DHT22;25786;51.504;7.344;2023-04-29T11:06:37;13.90;75.30
40085;DHT22;25786;51.504;7.344;2023-04-29T11:14:11;13.80;75.30
40085;DHT22;25786;51.504;7.344;2023-04-29T11:16:37;13.80;74.70
40085;DHT22;25786;51.504;7.344;2023-04-29T11:19:13;13.80;74.10
40085;DHT22;25786;51.504;7.344;2023-04-29T11:21:39;13.80;73.80
40085;DHT22;25786;51.504;7.344;2023-04-29T11:24:05;13.80;75.80
40085;DHT22;25786;51.504;7.344;2023-04-29T11:26:34;14.10;75.70
40085;DHT22;25786;51.504;7.344;2023-04-29T11:29:00;14.40;72.80
40085;DHT22;25786;51.504;7.344;2023-04-29T11:31:31;14.50;70.50
40085;DHT22;25786;51.504;7.344;2023-04-29T11:33:57;14.50;70.90
40085;DHT22;25786;51.504;7.344;2023-04-29T11:36:23;14.60;69.60
40085;DHT22;25786;51.504;7.344;2023-04-29T11:38:49;14.60;70.30
40085;DHT22;25786;51.504;7.344;2023-04-29T11:41:15;14.60;70.60
40085;DHT22;25786;51.504;7.344;2023-04-29T11:43:41;14.40;70.60
40085;DHT22;25786;51.504;7.344;2023-04-29T11:46:11;14.20;70.30
40085;DHT22;25786;51.504;7.344;2023-04-29T11:48:44;14.50;70.10
40085;DHT22;25786;51.504;7.344;2023-04-29T11:53:37;14.30;70.20
40085;DHT22;25786;51.504;7.344;2023-04-29T11:56:03;14.50;71.00
40085;DHT22;25786;51.504;7.344;2023-04-29T11:58:29;14.60;69.50
40085;DHT22;25786;51.504;7.344;2023-04-29T12:00:54;14.80;68.50
40085;DHT22;25786;51.504;7.344;2023-04-29T12:03:22;15.00;69.00
40085;DHT22;25786;51.504;7.344;2023-04-29T12:05:54;15.10;69.30
40085;DHT22;25786;51.504;7.344;2023-04-29T12:10:48;15.10;67.30
40085;DHT22;25786;51.504;7.344;2023-04-29T12:13:14;15.10;66.90
40085;DHT22;25786;51.504;7.344;2023-04-29T12:15:40;15.00;67.40
40085;DHT22;25786;51.504;7.344;2023-04-29T12:18:06;15.00;67.50
40085;DHT22;25786;51.504;7.344;2023-04-29T12:20:32;15.00;67.70
40085;DHT22;25786;51.504;7.344;2023-04-29T12:23:10;15.00;67.30
40085;DHT22;25786;51.504;7.344;2023-04-29T12:25:35;14.80;66.80
40085;DHT22;25786;51.504;7.344;2023-04-29T12:28:01;14.80;67.90
40085;DHT22;25786;51.504;7.344;2023-04-29T12:30:28;14.90;68.10
40085;DHT22;25786;51.504;7.344;2023-04-29T12:32:54;15.00;66.60
40085;DHT22;25786;51.504;7.344;2023-04-29T12:35:19;14.90;68.30
40085;DHT22;25786;51.504;7.344;2023-04-29T12:37:49;15.10;67.50
40085;DHT22;25786;51.504;7.344;2023-04-29T12:40:15;15.30;67.00
40085;DHT22;25786;51.504;7.344;2023-04-29T12:42:41;15.30;66.60
40085;DHT22;25786;51.504;7.344;2023-04-29T12:45:24;15.50;67.30
40085;DHT22;25786;51.504;7.344;2023-04-29T12:47:50;15.30;65.80
40085;DHT22;25786;51.504;7.344;2023-04-29T12:50:16;15.30;65.80
40085;DHT22;25786;51.504;7.344;2023-04-29T12:52:41;15.20;66.40
40085;DHT22;25786;51.504;7.344;2023-04-29T12:55:07;15.10;65.50
40085;DHT22;25786;51.504;7.344;2023-04-29T12:57:32;15.10;67.50
40085;DHT22;25786;51.504;7.344;2023-04-29T12:59:58;15.10;66.50
40085;DHT22;25786;51.504;7.344;2023-04-29T13:02:23;15.10;67.50
40085;DHT22;25786;51.504;7.344;2023-04-29T13:04:49;15.30;64.70
40085;DHT22;25786;51.504;7.344;2023-04-29T13:07:14;15.30;64.00
40085;DHT22;25786;51.504;7.344;2023-04-29T13:09:40;15.20;63.90
40085;DHT22;25786;51.504;7.344;2023-04-29T13:12:06;15.20;64.30
40085;DHT22;25786;51.504;7.344;2023-04-29T13:14:33;15.00;65.00
40085;DHT22;25786;51.504;7.344;2023-04-29T13:16:58;14.90;66.40
40085;DHT22;25786;51.504;7.344;2023-04-29T13:19:24;14.70;64.90
40085;DHT22;25786;51.504;7.344;2023-04-29T13:21:50;14.80;65.50
40085;DHT22;25786;51.504;7.344;2023-04-29T13:24:15;14.80;67.30
40085;DHT22;25786;51.504;7.344;2023-04-29T13:26:43;14.70;67.50
40085;DHT22;25786;51.504;7.344;2023-04-29T13:29:08;14.80;68.00
40085;DHT22;25786;51.504;7.344;2023-04-29T13:31:34;14.70;66.80
40085;DHT22;25786;51.504;7.344;2023-04-29T13:33:59;14.70;67.00
40085;DHT22;25786;51.504;7.344;2023-04-29T13:36:25;14.60;68.00
40085;DHT22;25786;51.504;7.344;2023-04-29T13:38:52;14.60;66.60
40085;DHT22;25786;51.504;7.344;2023-04-29T13:41:18;14.50;67.80
40085;DHT22;25786;51.504;7.344;2023-04-29T13:43:43;14.50;67.70
40085;DHT22;25786;51.504;7.344;2023-04-29T13:46:08;14.50;68.30
40085;DHT22;25786;51.504;7.344;2023-04-29T13:48:34;14.30;67.00
40085;DHT22;25786;51.504;7.344;2023-04-29T13:51:00;14.10;67.10
40085;DHT22;25786;51.504;7.344;2023-04-29T13:53:26;14.10;68.00
40085;DHT22;25786;51.504;7.344;2023-04-29T13:55:51;14.20;68.40
40085;DHT22;25786;51.504;7.344;2023-04-29T13:58:17;14.40;66.60
40085;DHT22;25786;51.504;7.344;2023-04-29T14:00:42;14.30;67.00
40085;DHT22;25786;51.504;7.344;2023-04-29T14:03:08;14.30;66.90
40085;DHT22;25786;51.504;7.344;2023-04-29T14:05:34;14.30;67.80
40085;DHT22;25786;51.504;7.344;2023-04-29T14:07:59;14.30;66.90
40085;DHT22;25786;51.504;7.344;2023-04-29T14:10:25;14.30;67.60
40085;DHT22;25786;51.504;7.344;2023-04-29T14:12:50;14.50;65.90
40085;DHT22;25786;51.504;7.344;2023-04-29T14:15:16;14.60;66.60
40085;DHT22;25786;51.504;7.344;2023-04-29T14:17:41;14.60;65.90
40085;DHT22;25786;51.504;7.344;2023-04-29T14:20:07;14.90;65.60
40085;DHT22;25786;51.504;7.344;2023-04-29T14:22:32;15.00;65.00
40085;DHT22;25786;51.504;7.344;2023-04-29T14:24:58;15.00;64.40
40085;DHT22;25786;51.504;7.344;2023-04-29T14:27:23;14.80;64.60
40085;DHT22;25786;51.504;7.344;2023-04-29T14:29:49;14.80;65.60
40085;DHT22;25786;51.504;7.344;2023-04-29T14:32:14;14.90;65.90
40085;DHT22;25786;51.504;7.344;2023-04-29T14:34:40;15.00;66.20
40085;DHT22;25786;51.504;7.344;2023-04-29T14:37:05;15.00;65.70
40085;DHT22;25786;51.504;7.344;2023-04-29T14:39:31;15.10;65.60
40085;DHT22;25786;51.504;7.344;2023-04-29T14:41:56;15.20;64.30
40085;DHT22;25786;51.504;7.344;2023-04-29T14:44:21;15.30;64.50
40085;DHT22;25786;51.504;7.344;2023-04-29T14:46:47;15.30;63.90
40085;DHT22;25786;51.504;7.344;2023-04-29T14:49:12;15.30;64.40
40085;DHT22;25786;51.504;7.344;2023-04-29T14:51:38;15.50;62.60
40085;DHT22;25786;51.504;7.344;2023-04-29T14:54:03;15.50;64.30
40085;DHT22;25786;51.504;7.344;2023-04-29T14:56:29;15.60;64.30
40085;DHT22;25786;51.504;7.344;2023-04-29T14:58:54;15.80;62.10
40085;DHT22;25786;51.504;7.344;2023-04-29T15:01:20;15.80;62.00
40085;DHT22;25786;51.504;7.344;2023-04-29T15:03:45;15.90;62.30
40085;DHT22;25786;51.504;7.344;2023-04-29T15:06:11;15.70;62.80
40085;DHT22;25786;51.504;7.344;2023-04-29T15:08:37;15.70;63.70
40085;DHT22;25786;51.504;7.344;2023-04-29T15:11:02;15.60;62.40
40085;DHT22;25786;51.504;7.344;2023-04-29T15:13:28;15.70;62.40
40085;DHT22;25786;51.504;7.344;2023-04-29T15:15:53;15.60;62.00
40085;DHT22;25786;51.504;7.344;2023-04-29T15:18:19;15.80;62.70
40085;DHT22;25786;51.504;7.344;2023-04-29T15:20:47;15.70;61.80
40085;DHT22;25786;51.504;7.344;2023-04-29T15:23:12;15.80;61.30
40085;DHT22;25786;51.504;7.344;2023-04-29T15:25:38;16.00;59.40
40085;DHT22;25786;51.504;7.344;2023-04-29T15:28:03;16.00;60.10
40085;DHT22;25786;51.504;7.344;2023-04-29T15:30:30;15.80;60.60
40085;DHT22;25786;51.504;7.344;2023-04-29T15:32:55;15.60;60.50
40085;DHT22;25786;51.504;7.344;2023-04-29T15:35:21;15.50;61.80
40085;DHT22;25786;51.504;7.344;2023-04-29T15:37:46;15.40;63.60
40085;DHT22;25786;51.504;7.344;2023-04-29T15:40:12;15.50;61.90
40085;DHT22;25786;51.504;7.344;2023-04-29T15:42:37;15.30;60.70
40085;DHT22;25786;51.504;7.344;2023-04-29T15:45:03;15.20;62.60
40085;DHT22;25786;51.504;7.344;2023-04-29T15:47:28;15.20;62.80
40085;DHT22;25786;51.504;7.344;2023-04-29T15:49:54;15.20;63.20
40085;DHT22;25786;51.504;7.344;2023-04-29T15:52:24;15.10;62.40
40085;DHT22;25786;51.504;7.344;2023-04-29T15:54:49;15.20;62.30
40085;DHT22;25786;51.504;7.344;2023-04-29T15:57:14;15.20;63.10